West Potrero (157) Station Data

Red Flag Warning: No
Fire Weather Zone: 250
SDGE Region: Mountain Empire
Lat/Lon: 32.612/-116.613

Observations

Time Wind Speed/Gust Temp(F) RH Fuel Moist Fuel Temp(F) Dewpt(F) Tmax(F) Tmin(F) Accum Precip 10-min Precip SL Press(mb)
6/22 4:50am 81 1 G 3 61° 61% - - 48° 67.7° 60.9° - - 880.0
6/22 4:40am 55 2 G 3 61° 61% - - 48° 67.7° 60.9° - - 880.0
6/22 4:30am 113 0 G 1 61° 61% - - 48° 67.7° 61° - - 880.0
6/22 4:20am 54 1 G 3 61° 61% - - 48° 67.7° 61° - - 880.0
6/22 4:10am 48 1 G 4 63° 59% - - 48° 67.7° 61.5° - - 879.0
6/22 4:00am 109 1 G 2 63° 60% - - 48° 67.7° 61.5° - - 880.0
6/22 3:50am 46 1 G 2 62° 59% - - 48° 67.7° 61.5° - - 879.0
6/22 3:40am 86 0 G 1 63° 58% - - 48° 67.7° 61.5° - - 879.0
6/22 3:30am 91 1 G 2 62° 60% - - 48° 67.7° 61.5° - - 880.0
6/22 3:20am 31 2 G 3 64° 56% - - 48° 67.7° 61.7° - - 878.0
6/22 3:10am 98 1 G 2 67° 51% - - 49° 67.7° 62.3° - - 877.0
6/22 3:00am 95 2 G 3 67° 53% - - 49° 67.4° 62.3° - - 878.0
6/22 2:50am 105 1 G 2 64° 57% - - 49° 66° 62.3° - - 879.0
6/22 2:40am 83 1 G 3 63° 58% - - 48° 66° 62.3° - - 879.0
6/22 2:30am 35 1 G 2 63° 58% - - 48° 66° 62.3° - - 879.0
6/22 2:20am 60 1 G 3 63° 58% - - 48° 66° 62.3° - - 879.0
6/22 2:10am 36 1 G 2 63° 56% - - 48° 66° 62.5° - - 878.0
6/22 2:00am 107 0 G 2 64° 56% - - 48° 66° 62.5° - - 878.0
6/22 1:50am 120 1 G 2 64° 56% - - 48° 66° 62.5° - - 879.0
6/22 1:40am 68 2 G 4 63° 57% - - 48° 66° 62.5° - - 879.0
6/22 1:30am 40 2 G 4 64° 56% - - 47° 66° 62.9° - - 878.0
6/22 1:20am 80 1 G 2 64° 55% - - 48° 66° 63.7° - - 878.0
6/22 1:10am 32 0 G 2 65° 54% - - 48° 66° 64.3° - - 878.0
6/22 1:00am 118 0 G 1 65° 54% - - 48° 66° 64.3° - - 878.0
6/22 12:50am 127 1 G 1 65° 55% - - 48° 66° 64.3° - - 878.0
6/22 12:40am 62 0 G 2 65° 55% - - 48° 66° 64.3° - - 878.0
6/22 12:30am 41 2 G 3 65° 54% - - 48° 66° 64.3° - - 878.0
6/22 12:20am 5 0 G 3 66° 54% - - 49° 66° 65.3° - - 878.0
6/22 12:10am 86 0 G 0 66° 54% - - 49° 65.9° 65.4° - - 878.0
6/22 12:00am 86 0 G 0 65° 53% - - 48° 97.2° 59.6° - - 878.0
6/21 11:50pm 37 0 G 2 66° 52% - - 48° 97.2° 59.6° - - 877.0
6/21 11:40pm 30 1 G 2 67° 50% - - 48° 97.2° 59.6° - - 877.0
6/21 11:30pm 71 1 G 2 68° 49% - - 48° 97.2° 59.6° - - 877.0
6/21 11:20pm 89 0 G 1 68° 49% - - 48° 97.2° 59.6° - - 877.0
6/21 11:10pm 101 0 G 1 68° 49% - - 48° 97.2° 59.6° - - 877.0
6/21 11:00pm 110 1 G 1 68° 49% - - 48° 97.2° 59.6° - - 877.0
6/21 10:50pm 104 0 G 1 69° 46% - - 47° 97.2° 59.6° - - 876.0
6/21 10:40pm 100 0 G 2 70° 46% - - 48° 97.2° 59.6° - - 876.0
6/21 10:30pm 66 2 G 4 70° 45% - - 48° 97.2° 59.6° - - 876.0
6/21 10:20pm 17 1 G 2 71° 44% - - 48° 97.2° 59.6° - - 875.0
6/21 10:10pm 49 0 G 1 72° 44% - - 49° 97.2° 59.6° - - 876.0
6/21 10:00pm 129 1 G 2 72° 45% - - 49° 97.2° 59.6° - - 876.0
6/21 9:50pm 118 0 G 1 71° 45% - - 49° 97.2° 59.6° - - 876.0
6/21 9:40pm 29 1 G 3 72° 44% - - 49° 97.2° 59.6° - - 876.0
6/21 9:30pm 355 1 G 2 73° 43% - - 50° 97.2° 59.6° - - 876.0
6/21 9:20pm 121 2 G 3 74° 42% - - 50° 97.2° 59.6° - - 876.0
6/21 9:10pm 68 1 G 2 75° 41% - - 50° 97.2° 59.6° - - 876.0
6/21 9:00pm 51 2 G 3 76° 41% - - 51° 97.2° 59.6° - - 877.0
6/21 8:50pm 71 2 G 3 75° 41% - - 50° 97.2° 59.6° - - 877.0
6/21 8:40pm 28 2 G 5 78° 39% - - 51° 97.2° 59.6° - - 876.0
6/21 8:30pm 128 2 G 2 79° 37% - - 51° 97.2° 59.6° - - 876.0
6/21 8:20pm 142 1 G 3 80° 38% - - 52° 97.2° 59.6° - - 877.0
6/21 8:10pm 214 2 G 3 80° 39% - - 53° 97.2° 59.6° - - 878.0
6/21 8:00pm 247 2 G 3 81° 37% - - 52° 97.2° 59.6° - - 877.0
6/21 7:50pm 261 3 G 4 82° 33% - - 51° 97.2° 59.6° - - 877.0
6/21 7:40pm 247 3 G 4 84° 31% - - 50° 97.2° 59.6° - - 877.0
6/21 7:30pm 220 3 G 5 84° 30% - - 49° 97.2° 59.6° - - 877.0
6/21 7:20pm 247 3 G 5 85° 28% - - 48° 97.2° 59.6° - - 876.0
6/21 7:10pm 241 4 G 7 86° 26% - - 47° 97.2° 59.6° - - 876.0
6/21 7:00pm 249 7 G 11 86° 26% - - 47° 97.2° 59.6° - - 876.0
6/21 6:50pm 245 10 G 13 86° 26% - - 48° 97.2° 59.6° - - 877.0
6/21 6:40pm 242 10 G 14 87° 26% - - 47° 97.2° 59.6° - - 877.0
6/21 6:30pm 243 11 G 14 87° 25% - - 47° 97.2° 59.6° - - 877.0
6/21 6:20pm 246 10 G 14 88° 25% - - 47° 97.2° 59.6° - - 878.0
6/21 6:10pm 250 10 G 14 88° 25% - - 48° 97.2° 59.6° - - 878.0
6/21 6:00pm 254 9 G 12 88° 26% - - 49° 97.2° 59.6° - - 879.0
6/21 5:50pm 257 9 G 12 89° 25% - - 49° 97.2° 59.6° - - 879.0
6/21 5:40pm 256 10 G 13 89° 24% - - 48° 97.2° 59.6° - - 879.0
6/21 5:30pm 246 10 G 13 89° 24% - - 47° 97.2° 59.6° - - 879.0
6/21 5:20pm 244 9 G 13 89° 23% - - 46° 97.2° 59.6° - - 879.0
6/21 5:10pm 245 10 G 13 90° 23% - - 47° 97.2° 59.6° - - 879.0
6/21 5:00pm 249 10 G 14 91° 21% - - 46° 97.2° 59.6° - - 879.0
6/21 4:50pm 251 10 G 13 92° 20% - - 45° 97.2° 59.6° - - 879.0
6/21 4:40pm 254 10 G 13 92° 19% - - 44° 97.2° 59.6° - - 879.0
6/21 4:30pm 258 10 G 15 93° 19% - - 44° 97.2° 59.6° - - 879.0
6/21 4:20pm 261 11 G 15 92° 19% - - 44° 97.2° 59.6° - - 880.0
6/21 4:10pm 253 12 G 16 93° 18% - - 43° 97.2° 59.6° - - 879.0
6/21 4:00pm 247 11 G 15 93° 18% - - 43° 97.2° 59.6° - - 880.0
6/21 3:50pm 247 11 G 14 93° 17% - - 41° 97.2° 59.6° - - 879.0
6/21 3:40pm 255 11 G 15 94° 16% - - 41° 97.2° 59.6° - - 880.0
6/21 3:30pm 247 12 G 17 94° 15% - - 40° 97.2° 59.6° - - 880.0
6/21 3:20pm 248 12 G 17 94° 15% - - 39° 97.2° 59.6° - - 880.0
6/21 3:10pm 254 12 G 16 95° 14% - - 38° 97.2° 59.6° - - 880.0
6/21 3:00pm 258 12 G 16 95° 14% - - 39° 97.2° 59.6° - - 880.0
6/21 2:50pm 254 12 G 18 96° 15% - - 41° 97.2° 59.6° - - 880.0
6/21 2:40pm 258 11 G 17 96° 14% - - 39° 97.2° 59.6° - - 880.0
6/21 2:30pm 251 12 G 17 96° 15% - - 41° 97.2° 59.6° - - 880.0
6/21 2:20pm 261 12 G 17 96° 15% - - 40° 97.2° 59.6° - - 880.0
6/21 2:10pm 254 12 G 18 96° 15% - - 40° 97.2° 59.6° - - 880.0
6/21 2:00pm 258 12 G 15 96° 14% - - 39° 97.2° 59.6° - - 879.0
6/21 1:50pm 255 11 G 15 96° 14% - - 39° 96.9° 59.6° - - 879.0
6/21 1:40pm 253 10 G 14 96° 15% - - 41° 96.8° 59.6° - - 879.0
6/21 1:30pm 265 9 G 13 96° 15% - - 40° 96.6° 59.6° - - 878.0
6/21 1:20pm 265 9 G 12 96° 15% - - 40° 96.6° 59.6° - - 878.0
6/21 1:10pm 259 9 G 14 95° 16% - - 42° 96.5° 59.6° - - 878.0
6/21 1:00pm 258 9 G 15 95° 15% - - 41° 96.5° 59.6° - - 877.0
6/21 12:50pm 260 11 G 15 95° 16% - - 41° 96.5° 59.6° - - 877.0
6/21 12:40pm 259 9 G 13 95° 16% - - 41° 96.5° 59.6° - - 878.0
6/21 12:30pm 257 10 G 13 95° 16% - - 41° 96.5° 59.6° - - 878.0
6/21 12:20pm 262 9 G 15 95° 16% - - 42° 96.5° 59.6° - - 878.0
6/21 12:10pm 258 10 G 14 95° 15% - - 40° 96.5° 59.6° - - 878.0
6/21 12:00pm 261 10 G 15 95° 15% - - 41° 96.5° 59.6° - - 878.0
6/21 11:50am 258 10 G 14 96° 15% - - 40° 96.5° 59.6° - - 878.0
6/21 11:40am 243 10 G 14 96° 14% - - 39° 96.4° 59.6° - - 878.0
6/21 11:30am 236 9 G 12 96° 14% - - 38° 96.4° 59.6° - - 878.0
6/21 11:20am 236 8 G 11 96° 13% - - 37° 96.1° 59.6° - - 877.0
6/21 11:10am 243 9 G 13 95° 13% - - 36° 95.7° 59.6° - - 877.0
6/21 11:00am 242 8 G 11 95° 12% - - 35° 95.6° 59.6° - - 876.0
6/21 10:50am 248 7 G 11 95° 12% - - 34° 95.6° 59.6° - - 876.0
6/21 10:40am 235 7 G 11 94° 12% - - 33° 94.8° 59.6° - - 875.0
6/21 10:30am 215 7 G 9 94° 12% - - 34° 94.2° 59.6° - - 875.0
6/21 10:20am 248 6 G 9 93° 13% - - 34° 93.7° 59.6° - - 874.0
6/21 10:10am 248 6 G 11 93° 12% - - 34° 93.5° 59.6° - - 874.0
6/21 10:00am 238 5 G 7 93° 13% - - 34° 93.4° 59.6° - - 873.0
6/21 9:50am 251 5 G 7 92° 13% - - 34° 92.7° 59.6° - - 873.0
6/21 9:40am 242 6 G 8 92° 13% - - 35° 92.7° 59.6° - - 873.0
6/21 9:30am 241 5 G 8 92° 14% - - 35° 92.7° 59.6° - - 872.0
6/21 9:20am 265 3 G 5 92° 14% - - 36° 92.3° 59.6° - - 872.0
6/21 9:10am 262 2 G 4 91° 15% - - 37° 91.5° 59.6° - - 871.0
6/21 9:00am 293 1 G 3 91° 16% - - 38° 91.5° 59.6° - - 871.0
6/21 8:50am 274 1 G 3 89° 19% - - 42° 90.1° 59.6° - - 871.0
6/21 8:40am 255 1 G 2 88° 20% - - 42° 88.8° 59.6° - - 871.0
6/21 8:30am 308 1 G 2 87° 21% - - 42° 87.6° 59.6° - - 870.0
6/21 8:20am 318 0 G 2 86° 22% - - 42° 86.8° 59.6° - - 870.0
6/21 8:10am 343 1 G 2 83° 23% - - 41° 84.8° 59.6° - - 870.0
6/21 8:00am 311 0 G 2 82° 29% - - 47° 82.4° 59.6° - - 872.0
6/21 7:50am 83 0 G 1 80° 32% - - 47° 80.4° 59.6° - - 872.0
6/21 7:40am 31 0 G 1 77° 35% - - 47° 78.7° 59.6° - - 872.0
6/21 7:30am 331 0 G 1 74° 39% - - 47° 74.2° 59.6° - - 873.0
6/21 7:20am 94 0 G 1 72° 42% - - 48° 73.7° 59.6° - - 874.0
6/21 7:10am 107 0 G 0 70° 46% - - 48° 70.9° 59.6° - - 875.0
6/21 7:00am 72 1 G 2 67° 48% - - 47° 68.5° 59.6° - - 875.0
6/21 6:50am 59 2 G 3 64° 51% - - 46° 66.5° 59.6° - - 876.0
6/21 6:40am 40 1 G 2 63° 52% - - 45° 66.5° 59.6° - - 876.0
6/21 6:30am 43 1 G 2 62° 54% - - 45° 66.5° 59.6° - - 877.0
6/21 6:20am 72 1 G 3 61° 55% - - 45° 66.5° 59.6° - - 877.0
6/21 6:10am 36 3 G 3 61° 54% - - 45° 66.5° 59.6° - - 877.0
6/21 6:00am 128 1 G 2 62° 55% - - 46° 66.5° 59.6° - - 877.0
6/21 5:50am 99 2 G 3 61° 57% - - 45° 66.5° 59.6° - - 878.0
6/21 5:40am 58 2 G 2 60° 58% - - 45° 66.5° 59.6° - - 878.0
6/21 5:30am 43 2 G 3 60° 57% - - 45° 66.5° 59.6° - - 878.0
6/21 5:20am 58 1 G 3 60° 57% - - 45° 66.5° 59.6° - - 878.0
6/21 5:10am 46 1 G 2 60° 58% - - 45° 66.5° 59.6° - - 878.0
6/21 5:00am 47 1 G 2 60° 57% - - 45° 66.5° 59.6° - - 878.0
6/21 4:50am 30 2 G 3 61° 55% - - 45° 66.5° 60.7° - - 877.0
6/21 4:40am 33 0 G 1 61° 55% - - 45° 66.5° 60.7° - - 877.0
6/21 4:30am 34 1 G 2 61° 55% - - 45° 66.5° 60.7° - - 877.0
6/21 4:20am 61 0 G 1 61° 56% - - 45° 66.5° 60.7° - - 877.0
6/21 4:10am 68 0 G 1 61° 54% - - 45° 66.5° 60.7° - - 877.0
6/21 4:00am 45 1 G 2 62° 54% - - 45° 66.5° 60.7° - - 877.0
6/21 3:50am 126 1 G 2 61° 56% - - 46° 66.5° 60.7° - - 878.0
6/21 3:40am 49 1 G 3 62° 53% - - 44° 66.5° 60.7° - - 876.0
6/21 3:30am 29 1 G 3 62° 54% - - 45° 66.5° 61.3° - - 877.0
6/21 3:20am 99 0 G 1 62° 54% - - 45° 66.5° 61.3° - - 877.0
6/21 3:10am 45 1 G 4 62° 54% - - 45° 66.5° 61.3° - - 877.0
6/21 3:00am 63 0 G 1 62° 54% - - 45° 66.5° 61.6° - - 877.0
6/21 2:50am 45 1 G 2 63° 52% - - 45° 66.5° 62° - - 876.0
6/21 2:40am 26 2 G 3 63° 53% - - 45° 66.5° 62.2° - - 877.0
6/21 2:30am 99 1 G 2 63° 57% - - 47° 66.5° 62.2° - - 878.0
6/21 2:20am 80 2 G 3 63° 54% - - 46° 66.5° 62.2° - - 877.0
6/21 2:10am 50 1 G 3 63° 54% - - 46° 66.5° 62.2° - - 877.0
6/21 2:00am 29 3 G 4 63° 56% - - 47° 66.5° 62.3° - - 878.0
6/21 1:50am 99 1 G 2 63° 59% - - 49° 66.5° 62.3° - - 880.0
6/21 1:40am 84 0 G 1 63° 59% - - 48° 66.5° 62.3° - - 879.0
6/21 1:30am 68 1 G 2 63° 58% - - 48° 66.5° 62.3° - - 879.0
6/21 1:20am 17 2 G 3 63° 57% - - 48° 66.5° 62.3° - - 879.0
6/21 1:10am 353 0 G 2 64° 57% - - 49° 66.5° 63.6° - - 879.0
6/21 1:00am 198 0 G 1 64° 58% - - 49° 66.5° 64° - - 879.0
6/21 12:50am 121 1 G 3 65° 57% - - 49° 66.5° 64.5° - - 879.0
6/21 12:40am 40 0 G 1 65° 57% - - 49° 66.5° 64.5° - - 879.0
6/21 12:30am 26 0 G 1 65° 57% - - 49° 66.5° 64.6° - - 879.0
6/21 12:20am 200 0 G 2 65° 56% - - 49° 66.5° 64.6° - - 879.0
6/21 12:10am 99 1 G 2 66° 54% - - 49° 66.5° 65° - - 878.0
6/21 12:00am 39 1 G 2 67° 53% - - 49° 98.5° 59.6° - - 878.0
6/20 11:50pm 93 1 G 2 67° 54% - - 50° 98.5° 59.6° - - 878.0
6/20 11:40pm 64 0 G 2 68° 52% - - 49° 98.5° 59.6° - - 878.0
6/20 11:30pm 52 2 G 3 69° 51% - - 50° 98.5° 59.6° - - 878.0
6/20 11:20pm 93 0 G 1 69° 50% - - 50° 98.5° 59.6° - - 878.0
6/20 11:10pm 85 1 G 2 70° 50% - - 50° 98.5° 59.6° - - 878.0
6/20 11:00pm 58 1 G 2 70° 49% - - 50° 98.5° 59.6° - - 877.0
6/20 10:50pm 44 1 G 2 72° 48% - - 51° 98.5° 59.6° - - 877.0
6/20 10:40pm 98 2 G 3 72° 47% - - 51° 98.5° 59.6° - - 877.0
6/20 10:30pm 115 1 G 2 72° 47% - - 51° 98.5° 59.6° - - 877.0
6/20 10:20pm 73 1 G 2 73° 46% - - 51° 98.5° 59.6° - - 877.0
6/20 10:10pm 80 1 G 3 74° 43% - - 50° 98.5° 59.6° - - 876.0
6/20 10:00pm 48 3 G 6 78° 38% - - 50° 98.5° 59.6° - - 876.0
6/20 9:50pm 68 4 G 6 75° 43% - - 51° 98.5° 59.6° - - 877.0
6/20 9:40pm 59 2 G 5 76° 40% - - 50° 98.5° 59.6° - - 876.0
6/20 9:30pm 126 0 G 2 79° 36% - - 50° 98.5° 59.6° - - 875.0
6/20 9:20pm 19 2 G 6 81° 33% - - 50° 98.5° 59.6° - - 875.0
6/20 9:10pm 18 4 G 6 82° 33% - - 50° 98.5° 59.6° - - 875.0
6/20 9:00pm 350 5 G 8 84° 30% - - 49° 98.5° 59.6° - - 874.0
6/20 8:50pm 356 6 G 10 84° 30% - - 49° 98.5° 59.6° - - 874.0
6/20 8:40pm 20 3 G 5 83° 31% - - 49° 98.5° 59.6° - - 875.0
6/20 8:30pm 103 2 G 5 82° 33% - - 50° 98.5° 59.6° - - 876.0
6/20 8:20pm 158 2 G 4 82° 33% - - 50° 98.5° 59.6° - - 876.0
6/20 8:10pm 179 2 G 4 83° 33% - - 50° 98.5° 59.6° - - 876.0
6/20 8:00pm 246 1 G 3 83° 32% - - 50° 98.5° 59.6° - - 876.0
6/20 7:50pm 228 1 G 3 83° 32% - - 51° 98.5° 59.6° - - 877.0
6/20 7:40pm 225 3 G 5 83° 32% - - 51° 98.5° 59.6° - - 877.0
6/20 7:30pm 234 4 G 6 84° 32% - - 51° 98.5° 59.6° - - 878.0
6/20 7:20pm 234 5 G 9 84° 32% - - 51° 98.5° 59.6° - - 878.0
6/20 7:10pm 228 7 G 9 85° 31% - - 51° 98.5° 59.6° - - 878.0
6/20 7:00pm 244 7 G 10 86° 31% - - 51° 98.5° 59.6° - - 879.0
6/20 6:50pm 246 8 G 11 86° 31% - - 52° 98.5° 59.6° - - 879.0
6/20 6:40pm 253 9 G 13 87° 30% - - 52° 98.5° 59.6° - - 880.0
6/20 6:30pm 252 9 G 13 88° 29% - - 51° 98.5° 59.6° - - 880.0
6/20 6:20pm 251 9 G 13 88° 28% - - 51° 98.5° 59.6° - - 880.0
6/20 6:10pm 252 10 G 14 88° 27% - - 51° 98.5° 59.6° - - 880.0
6/20 6:00pm 253 11 G 15 89° 27% - - 50° 98.5° 59.6° - - 880.0